Matrimony, North Carolina
Current Conditions -  °F | °C
As of 1:55 PM on Friday 24 Oct 2014 (Local Time) from KSIF Reporting Station
Clear Clear  
Wind Chill: 67°   Ceiling: Unl
Heat Index: 67°   Visibility: 10mi
Dew Point: 41°   Wind: 0mph
Humidity: 39%   Direction: NA
Pressure: 30.01"   Gusts: NA
Location:  36.4831°N, 79.9235°W
Report Text: KSIF 241755Z AUTO 00000KT 10SM CLR 19/05 A3001 RMK AO2 T01920049 10197 20027
Loading
Personal Weather Stations






























Interactive Weather Map
Tropical Storm Tracking
New forecast layout! Learn more

10-Day Weather Forecast

Advertisements
Track Severe Weather on mobile